sensor_id;sensor_type;location;lat;lon;timestamp;P1;durP1;ratioP1;P2;durP2;ratioP2
38637;SDS011;24401;53.034;-3.030;2024-03-08T00:01:55;10.70;;;8.05;;
38637;SDS011;24401;53.034;-3.030;2024-03-08T00:04:25;9.90;;;8.60;;
38637;SDS011;24401;53.034;-3.030;2024-03-08T00:06:56;9.57;;;8.57;;
38637;SDS011;24401;53.034;-3.030;2024-03-08T00:09:26;12.43;;;8.40;;
38637;SDS011;24401;53.034;-3.030;2024-03-08T00:11:57;14.00;;;9.57;;
38637;SDS011;24401;53.034;-3.030;2024-03-08T00:14:27;12.67;;;9.03;;
38637;SDS011;24401;53.034;-3.030;2024-03-08T00:16:58;11.03;;;9.17;;
38637;SDS011;24401;53.034;-3.030;2024-03-08T00:19:28;15.03;;;9.07;;
38637;SDS011;24401;53.034;-3.030;2024-03-08T00:21:58;11.90;;;9.53;;
38637;SDS011;24401;53.034;-3.030;2024-03-08T00:24:28;11.50;;;8.40;;
38637;SDS011;24401;53.034;-3.030;2024-03-08T00:27:00;15.95;;;9.77;;
38637;SDS011;24401;53.034;-3.030;2024-03-08T00:29:32;11.20;;;9.88;;
38637;SDS011;24401;53.034;-3.030;2024-03-08T00:32:02;12.20;;;9.07;;
38637;SDS011;24401;53.034;-3.030;2024-03-08T00:34:32;14.30;;;9.83;;
38637;SDS011;24401;53.034;-3.030;2024-03-08T00:37:05;13.23;;;9.52;;
38637;SDS011;24401;53.034;-3.030;2024-03-08T00:39:35;10.60;;;9.50;;
38637;SDS011;24401;53.034;-3.030;2024-03-08T00:42:05;10.77;;;9.43;;
38637;SDS011;24401;53.034;-3.030;2024-03-08T00:44:35;10.57;;;9.47;;
38637;SDS011;24401;53.034;-3.030;2024-03-08T00:47:06;12.40;;;10.73;;
38637;SDS011;24401;53.034;-3.030;2024-03-08T00:49:36;10.53;;;8.77;;
38637;SDS011;24401;53.034;-3.030;2024-03-08T00:52:08;10.15;;;9.18;;
38637;SDS011;24401;53.034;-3.030;2024-03-08T00:54:38;13.80;;;8.60;;
38637;SDS011;24401;53.034;-3.030;2024-03-08T00:57:08;10.47;;;8.83;;
38637;SDS011;24401;53.034;-3.030;2024-03-08T00:59:38;13.57;;;9.80;;
38637;SDS011;24401;53.034;-3.030;2024-03-08T01:02:09;9.53;;;8.23;;
38637;SDS011;24401;53.034;-3.030;2024-03-08T01:04:39;11.17;;;9.50;;
38637;SDS011;24401;53.034;-3.030;2024-03-08T01:07:10;16.27;;;9.77;;
38637;SDS011;24401;53.034;-3.030;2024-03-08T01:09:40;9.77;;;8.53;;
38637;SDS011;24401;53.034;-3.030;2024-03-08T01:12:10;9.37;;;8.37;;
38637;SDS011;24401;53.034;-3.030;2024-03-08T01:14:41;12.27;;;8.97;;
38637;SDS011;24401;53.034;-3.030;2024-03-08T01:17:11;17.87;;;9.07;;
38637;SDS011;24401;53.034;-3.030;2024-03-08T01:19:42;14.07;;;8.85;;
38637;SDS011;24401;53.034;-3.030;2024-03-08T01:24:45;10.48;;;9.32;;
38637;SDS011;24401;53.034;-3.030;2024-03-08T01:27:15;16.73;;;9.23;;
38637;SDS011;24401;53.034;-3.030;2024-03-08T01:29:45;15.17;;;8.73;;
38637;SDS011;24401;53.034;-3.030;2024-03-08T01:32:15;10.03;;;8.83;;
38637;SDS011;24401;53.034;-3.030;2024-03-08T01:34:46;12.40;;;8.97;;
38637;SDS011;24401;53.034;-3.030;2024-03-08T01:37:16;13.07;;;7.70;;
38637;SDS011;24401;53.034;-3.030;2024-03-08T01:39:46;10.07;;;8.30;;
38637;SDS011;24401;53.034;-3.030;2024-03-08T01:42:17;9.37;;;8.17;;
38637;SDS011;24401;53.034;-3.030;2024-03-08T01:44:47;9.47;;;8.57;;
38637;SDS011;24401;53.034;-3.030;2024-03-08T01:47:18;8.97;;;8.17;;
38637;SDS011;24401;53.034;-3.030;2024-03-08T01:49:49;10.53;;;9.43;;
38637;SDS011;24401;53.034;-3.030;2024-03-08T01:52:19;11.70;;;8.87;;
38637;SDS011;24401;53.034;-3.030;2024-03-08T01:54:50;13.77;;;8.85;;
38637;SDS011;24401;53.034;-3.030;2024-03-08T01:57:21;9.23;;;8.33;;
38637;SDS011;24401;53.034;-3.030;2024-03-08T01:59:51;12.63;;;8.50;;
38637;SDS011;24401;53.034;-3.030;2024-03-08T02:02:24;13.32;;;8.98;;
38637;SDS011;24401;53.034;-3.030;2024-03-08T02:04:54;11.83;;;8.80;;
38637;SDS011;24401;53.034;-3.030;2024-03-08T02:07:25;12.47;;;9.03;;
38637;SDS011;24401;53.034;-3.030;2024-03-08T02:09:55;12.53;;;9.27;;
38637;SDS011;24401;53.034;-3.030;2024-03-08T02:12:25;15.80;;;9.63;;
38637;SDS011;24401;53.034;-3.030;2024-03-08T02:14:55;13.43;;;8.87;;
38637;SDS011;24401;53.034;-3.030;2024-03-08T02:17:26;10.73;;;9.07;;
38637;SDS011;24401;53.034;-3.030;2024-03-08T02:19:56;19.53;;;9.67;;
38637;SDS011;24401;53.034;-3.030;2024-03-08T02:22:29;24.67;;;9.80;;
38637;SDS011;24401;53.034;-3.030;2024-03-08T02:25:00;20.10;;;10.30;;
38637;SDS011;24401;53.034;-3.030;2024-03-08T02:27:33;10.30;;;9.15;;
38637;SDS011;24401;53.034;-3.030;2024-03-08T02:30:03;14.10;;;9.67;;
38637;SDS011;24401;53.034;-3.030;2024-03-08T02:32:35;12.73;;;10.18;;
38637;SDS011;24401;53.034;-3.030;2024-03-08T02:35:05;12.10;;;10.83;;
38637;SDS011;24401;53.034;-3.030;2024-03-08T02:37:36;11.67;;;10.23;;
38637;SDS011;24401;53.034;-3.030;2024-03-08T02:40:06;17.50;;;10.97;;
38637;SDS011;24401;53.034;-3.030;2024-03-08T02:42:37;15.27;;;10.50;;
38637;SDS011;24401;53.034;-3.030;2024-03-08T02:45:08;12.53;;;9.60;;
38637;SDS011;24401;53.034;-3.030;2024-03-08T02:50:10;19.92;;;10.40;;
38637;SDS011;24401;53.034;-3.030;2024-03-08T02:52:44;20.38;;;10.27;;
38637;SDS011;24401;53.034;-3.030;2024-03-08T02:55:16;11.65;;;9.60;;
38637;SDS011;24401;53.034;-3.030;2024-03-08T02:57:46;16.77;;;9.47;;
38637;SDS011;24401;53.034;-3.030;2024-03-08T03:00:19;12.07;;;10.15;;
38637;SDS011;24401;53.034;-3.030;2024-03-08T03:02:50;13.23;;;9.63;;
38637;SDS011;24401;53.034;-3.030;2024-03-08T03:05:24;15.10;;;10.70;;
38637;SDS011;24401;53.034;-3.030;2024-03-08T03:07:54;17.87;;;10.67;;
38637;SDS011;24401;53.034;-3.030;2024-03-08T03:10:24;19.00;;;10.50;;
38637;SDS011;24401;53.034;-3.030;2024-03-08T03:12:54;17.30;;;10.57;;
38637;SDS011;24401;53.034;-3.030;2024-03-08T03:15:25;16.23;;;10.27;;
38637;SDS011;24401;53.034;-3.030;2024-03-08T03:17:55;16.73;;;10.73;;
38637;SDS011;24401;53.034;-3.030;2024-03-08T03:20:25;23.43;;;10.73;;
38637;SDS011;24401;53.034;-3.030;2024-03-08T03:23:14;15.23;;;10.65;;
38637;SDS011;24401;53.034;-3.030;2024-03-08T03:25:44;11.40;;;10.20;;
38637;SDS011;24401;53.034;-3.030;2024-03-08T03:28:16;13.30;;;11.13;;
38637;SDS011;24401;53.034;-3.030;2024-03-08T03:30:47;13.27;;;10.93;;
38637;SDS011;24401;53.034;-3.030;2024-03-08T03:33:18;13.53;;;10.57;;
38637;SDS011;24401;53.034;-3.030;2024-03-08T03:35:48;11.33;;;10.10;;
38637;SDS011;24401;53.034;-3.030;2024-03-08T03:38:19;14.37;;;10.73;;
38637;SDS011;24401;53.034;-3.030;2024-03-08T03:40:53;14.52;;;11.38;;
38637;SDS011;24401;53.034;-3.030;2024-03-08T03:43:27;16.92;;;11.35;;
38637;SDS011;24401;53.034;-3.030;2024-03-08T03:45:57;22.07;;;12.73;;
38637;SDS011;24401;53.034;-3.030;2024-03-08T03:48:27;17.23;;;12.03;;
38637;SDS011;24401;53.034;-3.030;2024-03-08T03:50:57;16.00;;;11.33;;
38637;SDS011;24401;53.034;-3.030;2024-03-08T03:53:28;13.27;;;11.53;;
38637;SDS011;24401;53.034;-3.030;2024-03-08T03:55:58;14.63;;;11.00;;
38637;SDS011;24401;53.034;-3.030;2024-03-08T03:58:29;18.53;;;11.23;;
38637;SDS011;24401;53.034;-3.030;2024-03-08T04:00:59;12.07;;;10.83;;
38637;SDS011;24401;53.034;-3.030;2024-03-08T04:03:30;12.40;;;10.67;;
38637;SDS011;24401;53.034;-3.030;2024-03-08T04:06:00;17.37;;;11.53;;
38637;SDS011;24401;53.034;-3.030;2024-03-08T04:08:31;13.37;;;11.27;;
38637;SDS011;24401;53.034;-3.030;2024-03-08T04:11:01;13.60;;;10.67;;
38637;SDS011;24401;53.034;-3.030;2024-03-08T04:13:32;15.60;;;11.85;;
38637;SDS011;24401;53.034;-3.030;2024-03-08T04:16:02;16.70;;;11.73;;
38637;SDS011;24401;53.034;-3.030;2024-03-08T04:18:33;19.63;;;14.57;;
38637;SDS011;24401;53.034;-3.030;2024-03-08T04:21:05;19.67;;;11.75;;
38637;SDS011;24401;53.034;-3.030;2024-03-08T04:23:36;20.38;;;11.35;;
38637;SDS011;24401;53.034;-3.030;2024-03-08T04:26:07;15.87;;;11.77;;
38637;SDS011;24401;53.034;-3.030;2024-03-08T04:31:09;17.17;;;11.57;;
38637;SDS011;24401;53.034;-3.030;2024-03-08T04:33:40;13.67;;;11.27;;
38637;SDS011;24401;53.034;-3.030;2024-03-08T04:36:10;15.53;;;11.00;;
38637;SDS011;24401;53.034;-3.030;2024-03-08T04:38:43;18.55;;;10.95;;
38637;SDS011;24401;53.034;-3.030;2024-03-08T04:41:13;17.17;;;11.60;;
38637;SDS011;24401;53.034;-3.030;2024-03-08T04:43:44;13.27;;;11.83;;
38637;SDS011;24401;53.034;-3.030;2024-03-08T04:46:14;19.63;;;11.97;;
38637;SDS011;24401;53.034;-3.030;2024-03-08T04:48:45;13.88;;;11.43;;
38637;SDS011;24401;53.034;-3.030;2024-03-08T04:51:16;11.97;;;10.40;;
38637;SDS011;24401;53.034;-3.030;2024-03-08T04:53:46;24.47;;;10.37;;
38637;SDS011;24401;53.034;-3.030;2024-03-08T04:56:16;12.83;;;11.47;;
38637;SDS011;24401;53.034;-3.030;2024-03-08T04:58:49;14.23;;;12.10;;
38637;SDS011;24401;53.034;-3.030;2024-03-08T05:01:19;18.07;;;11.47;;
38637;SDS011;24401;53.034;-3.030;2024-03-08T05:03:50;15.90;;;10.80;;
38637;SDS011;24401;53.034;-3.030;2024-03-08T05:06:21;14.93;;;11.37;;
38637;SDS011;24401;53.034;-3.030;2024-03-08T05:08:51;16.13;;;11.90;;
38637;SDS011;24401;53.034;-3.030;2024-03-08T05:11:21;13.60;;;10.63;;
38637;SDS011;24401;53.034;-3.030;2024-03-08T05:13:51;15.70;;;11.87;;
38637;SDS011;24401;53.034;-3.030;2024-03-08T05:16:22;12.53;;;11.10;;
38637;SDS011;24401;53.034;-3.030;2024-03-08T05:18:52;14.23;;;11.83;;
38637;SDS011;24401;53.034;-3.030;2024-03-08T05:21:22;12.90;;;10.63;;
38637;SDS011;24401;53.034;-3.030;2024-03-08T05:23:53;23.23;;;10.43;;
38637;SDS011;24401;53.034;-3.030;2024-03-08T05:26:24;13.17;;;11.83;;
38637;SDS011;24401;53.034;-3.030;2024-03-08T05:28:55;11.95;;;10.85;;
38637;SDS011;24401;53.034;-3.030;2024-03-08T05:31:26;13.02;;;10.73;;
38637;SDS011;24401;53.034;-3.030;2024-03-08T05:33:58;15.75;;;11.57;;
38637;SDS011;24401;53.034;-3.030;2024-03-08T05:36:28;19.67;;;12.23;;
38637;SDS011;24401;53.034;-3.030;2024-03-08T05:38:58;12.83;;;11.20;;
38637;SDS011;24401;53.034;-3.030;2024-03-08T05:41:29;13.10;;;11.77;;
38637;SDS011;24401;53.034;-3.030;2024-03-08T05:43:59;14.47;;;11.73;;
38637;SDS011;24401;53.034;-3.030;2024-03-08T05:46:29;12.83;;;11.03;;
38637;SDS011;24401;53.034;-3.030;2024-03-08T05:49:00;16.80;;;12.57;;
38637;SDS011;24401;53.034;-3.030;2024-03-08T05:51:30;15.20;;;11.87;;
38637;SDS011;24401;53.034;-3.030;2024-03-08T05:54:01;13.17;;;11.87;;
38637;SDS011;24401;53.034;-3.030;2024-03-08T05:56:32;13.43;;;11.50;;
38637;SDS011;24401;53.034;-3.030;2024-03-08T05:59:03;15.60;;;11.17;;
38637;SDS011;24401;53.034;-3.030;2024-03-08T06:01:33;19.80;;;11.80;;
38637;SDS011;24401;53.034;-3.030;2024-03-08T06:04:06;16.48;;;12.43;;
38637;SDS011;24401;53.034;-3.030;2024-03-08T06:06:37;21.60;;;13.32;;
38637;SDS011;24401;53.034;-3.030;2024-03-08T06:09:07;19.40;;;13.10;;
38637;SDS011;24401;53.034;-3.030;2024-03-08T06:11:47;17.35;;;11.50;;
38637;SDS011;24401;53.034;-3.030;2024-03-08T06:14:17;19.03;;;13.60;;
38637;SDS011;24401;53.034;-3.030;2024-03-08T06:16:50;20.05;;;13.35;;
38637;SDS011;24401;53.034;-3.030;2024-03-08T06:19:20;31.13;;;13.07;;
38637;SDS011;24401;53.034;-3.030;2024-03-08T06:21:51;15.13;;;12.27;;
38637;SDS011;24401;53.034;-3.030;2024-03-08T06:24:21;21.10;;;12.53;;
38637;SDS011;24401;53.034;-3.030;2024-03-08T06:26:51;20.40;;;12.20;;
38637;SDS011;24401;53.034;-3.030;2024-03-08T06:29:22;19.87;;;13.50;;
38637;SDS011;24401;53.034;-3.030;2024-03-08T06:31:52;21.80;;;13.97;;
38637;SDS011;24401;53.034;-3.030;2024-03-08T06:34:23;23.13;;;14.38;;
38637;SDS011;24401;53.034;-3.030;2024-03-08T06:36:53;17.30;;;14.77;;
38637;SDS011;24401;53.034;-3.030;2024-03-08T06:39:30;20.23;;;14.20;;
38637;SDS011;24401;53.034;-3.030;2024-03-08T06:42:01;26.10;;;14.53;;
38637;SDS011;24401;53.034;-3.030;2024-03-08T06:44:32;21.77;;;13.83;;
38637;SDS011;24401;53.034;-3.030;2024-03-08T06:47:02;20.70;;;14.40;;
38637;SDS011;24401;53.034;-3.030;2024-03-08T06:49:33;23.30;;;14.37;;
38637;SDS011;24401;53.034;-3.030;2024-03-08T06:52:03;30.83;;;15.23;;
38637;SDS011;24401;53.034;-3.030;2024-03-08T06:54:34;29.07;;;14.53;;
38637;SDS011;24401;53.034;-3.030;2024-03-08T06:59:36;17.75;;;13.55;;
38637;SDS011;24401;53.034;-3.030;2024-03-08T07:02:06;19.20;;;14.87;;
38637;SDS011;24401;53.034;-3.030;2024-03-08T07:04:39;20.65;;;14.43;;
38637;SDS011;24401;53.034;-3.030;2024-03-08T07:07:09;18.43;;;14.03;;
38637;SDS011;24401;53.034;-3.030;2024-03-08T07:09:39;29.67;;;15.53;;
38637;SDS011;24401;53.034;-3.030;2024-03-08T07:12:12;25.98;;;15.85;;
38637;SDS011;24401;53.034;-3.030;2024-03-08T07:14:43;27.30;;;16.03;;
38637;SDS011;24401;53.034;-3.030;2024-03-08T07:17:15;24.40;;;14.48;;
38637;SDS011;24401;53.034;-3.030;2024-03-08T07:19:47;28.92;;;15.98;;
38637;SDS011;24401;53.034;-3.030;2024-03-08T07:22:17;22.47;;;15.43;;
38637;SDS011;24401;53.034;-3.030;2024-03-08T07:24:47;23.63;;;15.50;;
38637;SDS011;24401;53.034;-3.030;2024-03-08T07:27:50;24.05;;;16.17;;
38637;SDS011;24401;53.034;-3.030;2024-03-08T07:30:24;27.95;;;15.88;;
38637;SDS011;24401;53.034;-3.030;2024-03-08T07:33:13;29.63;;;15.95;;
38637;SDS011;24401;53.034;-3.030;2024-03-08T07:35:43;24.97;;;15.90;;
38637;SDS011;24401;53.034;-3.030;2024-03-08T07:38:15;29.25;;;16.55;;
38637;SDS011;24401;53.034;-3.030;2024-03-08T07:40:46;26.73;;;15.60;;
38637;SDS011;24401;53.034;-3.030;2024-03-08T07:43:18;29.83;;;16.08;;
38637;SDS011;24401;53.034;-3.030;2024-03-08T07:45:48;22.20;;;15.87;;
38637;SDS011;24401;53.034;-3.030;2024-03-08T07:48:18;23.00;;;15.97;;
38637;SDS011;24401;53.034;-3.030;2024-03-08T07:50:48;31.73;;;17.20;;
38637;SDS011;24401;53.034;-3.030;2024-03-08T07:53:19;30.95;;;16.05;;
38637;SDS011;24401;53.034;-3.030;2024-03-08T07:55:50;23.60;;;15.73;;
38637;SDS011;24401;53.034;-3.030;2024-03-08T07:58:20;23.10;;;15.50;;
38637;SDS011;24401;53.034;-3.030;2024-03-08T08:00:50;28.50;;;15.10;;
38637;SDS011;24401;53.034;-3.030;2024-03-08T08:03:20;27.27;;;16.63;;
38637;SDS011;24401;53.034;-3.030;2024-03-08T08:05:51;36.23;;;16.57;;
38637;SDS011;24401;53.034;-3.030;2024-03-08T08:08:21;25.50;;;15.93;;
38637;SDS011;24401;53.034;-3.030;2024-03-08T08:10:51;23.37;;;14.67;;
38637;SDS011;24401;53.034;-3.030;2024-03-08T08:13:21;20.27;;;13.83;;
38637;SDS011;24401;53.034;-3.030;2024-03-08T08:15:52;29.50;;;16.30;;
38637;SDS011;24401;53.034;-3.030;2024-03-08T08:18:22;29.23;;;16.77;;
38637;SDS011;24401;53.034;-3.030;2024-03-08T08:20:55;24.27;;;15.40;;
38637;SDS011;24401;53.034;-3.030;2024-03-08T08:23:25;35.87;;;17.23;;
38637;SDS011;24401;53.034;-3.030;2024-03-08T08:25:56;33.53;;;16.20;;
38637;SDS011;24401;53.034;-3.030;2024-03-08T08:28:26;28.90;;;15.37;;
38637;SDS011;24401;53.034;-3.030;2024-03-08T08:30:56;39.83;;;17.77;;
38637;SDS011;24401;53.034;-3.030;2024-03-08T08:33:26;28.67;;;16.03;;
38637;SDS011;24401;53.034;-3.030;2024-03-08T08:35:57;26.17;;;15.90;;
38637;SDS011;24401;53.034;-3.030;2024-03-08T08:38:28;22.40;;;15.70;;
38637;SDS011;24401;53.034;-3.030;2024-03-08T08:40:58;26.97;;;17.27;;
38637;SDS011;24401;53.034;-3.030;2024-03-08T08:43:29;29.40;;;16.00;;
38637;SDS011;24401;53.034;-3.030;2024-03-08T08:45:59;30.73;;;15.77;;
38637;SDS011;24401;53.034;-3.030;2024-03-08T08:48:29;27.37;;;16.57;;
38637;SDS011;24401;53.034;-3.030;2024-03-08T08:51:00;26.20;;;14.67;;
38637;SDS011;24401;53.034;-3.030;2024-03-08T08:53:30;19.40;;;14.40;;
38637;SDS011;24401;53.034;-3.030;2024-03-08T08:56:01;23.93;;;14.33;;
38637;SDS011;24401;53.034;-3.030;2024-03-08T08:58:31;29.97;;;16.33;;
38637;SDS011;24401;53.034;-3.030;2024-03-08T09:01:02;35.37;;;14.17;;
38637;SDS011;24401;53.034;-3.030;2024-03-08T09:03:32;30.27;;;16.33;;
38637;SDS011;24401;53.034;-3.030;2024-03-08T09:06:04;27.95;;;14.43;;
38637;SDS011;24401;53.034;-3.030;2024-03-08T09:08:35;26.37;;;15.33;;
38637;SDS011;24401;53.034;-3.030;2024-03-08T09:11:05;36.30;;;14.33;;
38637;SDS011;24401;53.034;-3.030;2024-03-08T09:13:36;28.97;;;15.53;;
38637;SDS011;24401;53.034;-3.030;2024-03-08T09:16:09;24.15;;;14.35;;
38637;SDS011;24401;53.034;-3.030;2024-03-08T09:18:40;23.33;;;15.07;;
38637;SDS011;24401;53.034;-3.030;2024-03-08T09:21:11;22.77;;;15.93;;
38637;SDS011;24401;53.034;-3.030;2024-03-08T09:23:43;30.08;;;15.07;;
38637;SDS011;24401;53.034;-3.030;2024-03-08T09:26:14;30.25;;;15.00;;
38637;SDS011;24401;53.034;-3.030;2024-03-08T09:28:45;24.57;;;15.37;;
38637;SDS011;24401;53.034;-3.030;2024-03-08T09:31:15;18.77;;;14.20;;
38637;SDS011;24401;53.034;-3.030;2024-03-08T09:33:45;20.23;;;14.10;;
38637;SDS011;24401;53.034;-3.030;2024-03-08T09:36:16;17.17;;;13.50;;
38637;SDS011;24401;53.034;-3.030;2024-03-08T09:38:47;20.40;;;13.67;;
38637;SDS011;24401;53.034;-3.030;2024-03-08T09:41:18;24.50;;;15.13;;
38637;SDS011;24401;53.034;-3.030;2024-03-08T09:43:48;32.03;;;16.00;;
38637;SDS011;24401;53.034;-3.030;2024-03-08T09:46:19;27.13;;;14.27;;
38637;SDS011;24401;53.034;-3.030;2024-03-08T09:48:49;23.73;;;13.60;;
38637;SDS011;24401;53.034;-3.030;2024-03-08T09:51:21;26.00;;;14.60;;
38637;SDS011;24401;53.034;-3.030;2024-03-08T09:53:54;18.63;;;14.63;;
38637;SDS011;24401;53.034;-3.030;2024-03-08T09:56:24;21.70;;;14.13;;
38637;SDS011;24401;53.034;-3.030;2024-03-08T09:58:55;27.08;;;14.80;;
38637;SDS011;24401;53.034;-3.030;2024-03-08T10:01:43;19.45;;;14.70;;
38637;SDS011;24401;53.034;-3.030;2024-03-08T10:04:14;26.57;;;14.57;;
38637;SDS011;24401;53.034;-3.030;2024-03-08T10:06:45;17.73;;;14.00;;
38637;SDS011;24401;53.034;-3.030;2024-03-08T10:09:17;22.13;;;14.77;;
38637;SDS011;24401;53.034;-3.030;2024-03-08T10:11:47;22.50;;;12.97;;
38637;SDS011;24401;53.034;-3.030;2024-03-08T10:14:18;26.92;;;14.70;;
38637;SDS011;24401;53.034;-3.030;2024-03-08T10:16:48;20.37;;;12.33;;
38637;SDS011;24401;53.034;-3.030;2024-03-08T10:19:19;26.47;;;14.13;;
38637;SDS011;24401;53.034;-3.030;2024-03-08T10:21:50;25.80;;;13.63;;
38637;SDS011;24401;53.034;-3.030;2024-03-08T10:24:23;24.05;;;13.98;;
38637;SDS011;24401;53.034;-3.030;2024-03-08T10:27:00;23.00;;;14.40;;
38637;SDS011;24401;53.034;-3.030;2024-03-08T10:29:35;17.88;;;13.48;;
38637;SDS011;24401;53.034;-3.030;2024-03-08T10:32:06;25.77;;;14.05;;
38637;SDS011;24401;53.034;-3.030;2024-03-08T10:34:37;17.75;;;12.73;;
38637;SDS011;24401;53.034;-3.030;2024-03-08T10:37:07;20.10;;;13.40;;
38637;SDS011;24401;53.034;-3.030;2024-03-08T10:39:41;19.48;;;13.05;;
38637;SDS011;24401;53.034;-3.030;2024-03-08T10:42:16;23.10;;;13.13;;
38637;SDS011;24401;53.034;-3.030;2024-03-08T10:44:49;19.70;;;12.10;;
38637;SDS011;24401;53.034;-3.030;2024-03-08T10:47:28;15.75;;;13.35;;
38637;SDS011;24401;53.034;-3.030;2024-03-08T10:52:36;17.60;;;13.57;;
38637;SDS011;24401;53.034;-3.030;2024-03-08T10:55:07;23.80;;;13.60;;
38637;SDS011;24401;53.034;-3.030;2024-03-08T10:57:42;18.17;;;12.95;;
38637;SDS011;24401;53.034;-3.030;2024-03-08T11:00:13;14.63;;;13.07;;
38637;SDS011;24401;53.034;-3.030;2024-03-08T11:02:44;24.37;;;13.20;;
38637;SDS011;24401;53.034;-3.030;2024-03-08T11:08:22;22.08;;;13.20;;
38637;SDS011;24401;53.034;-3.030;2024-03-08T11:10:53;23.80;;;12.93;;
38637;SDS011;24401;53.034;-3.030;2024-03-08T11:13:35;18.90;;;13.60;;
38637;SDS011;24401;53.034;-3.030;2024-03-08T11:16:12;22.75;;;13.00;;
38637;SDS011;24401;53.034;-3.030;2024-03-08T11:19:06;16.30;;;12.93;;
38637;SDS011;24401;53.034;-3.030;2024-03-08T11:21:37;17.20;;;12.43;;
38637;SDS011;24401;53.034;-3.030;2024-03-08T11:24:11;20.30;;;13.15;;
38637;SDS011;24401;53.034;-3.030;2024-03-08T11:26:45;21.20;;;13.18;;
38637;SDS011;24401;53.034;-3.030;2024-03-08T11:32:16;17.58;;;12.73;;
38637;SDS011;24401;53.034;-3.030;2024-03-08T11:34:48;23.40;;;13.23;;
38637;SDS011;24401;53.034;-3.030;2024-03-08T11:37:20;19.25;;;13.80;;
38637;SDS011;24401;53.034;-3.030;2024-03-08T11:39:54;25.95;;;12.88;;
38637;SDS011;24401;53.034;-3.030;2024-03-08T11:42:32;20.40;;;13.35;;
38637;SDS011;24401;53.034;-3.030;2024-03-08T11:45:08;15.73;;;12.88;;
38637;SDS011;24401;53.034;-3.030;2024-03-08T11:47:38;24.27;;;13.43;;
38637;SDS011;24401;53.034;-3.030;2024-03-08T11:50:10;26.58;;;12.40;;
38637;SDS011;24401;53.034;-3.030;2024-03-08T11:52:42;25.40;;;14.83;;
38637;SDS011;24401;53.034;-3.030;2024-03-08T11:55:13;16.25;;;13.30;;
38637;SDS011;24401;53.034;-3.030;2024-03-08T11:57:43;20.50;;;12.67;;
38637;SDS011;24401;53.034;-3.030;2024-03-08T12:00:16;15.10;;;12.23;;
38637;SDS011;24401;53.034;-3.030;2024-03-08T12:03:02;18.40;;;13.60;;
38637;SDS011;24401;53.034;-3.030;2024-03-08T12:05:33;16.35;;;11.52;;
38637;SDS011;24401;53.034;-3.030;2024-03-08T12:08:03;16.27;;;11.80;;
38637;SDS011;24401;53.034;-3.030;2024-03-08T12:10:36;20.23;;;12.85;;
38637;SDS011;24401;53.034;-3.030;2024-03-08T12:13:07;19.80;;;12.77;;
38637;SDS011;24401;53.034;-3.030;2024-03-08T12:15:42;13.68;;;12.13;;
38637;SDS011;24401;53.034;-3.030;2024-03-08T12:18:14;17.08;;;12.57;;
38637;SDS011;24401;53.034;-3.030;2024-03-08T12:20:44;14.83;;;12.27;;
38637;SDS011;24401;53.034;-3.030;2024-03-08T12:23:19;18.75;;;12.80;;
38637;SDS011;24401;53.034;-3.030;2024-03-08T12:25:50;20.17;;;12.17;;
38637;SDS011;24401;53.034;-3.030;2024-03-08T12:28:20;13.70;;;12.03;;
38637;SDS011;24401;53.034;-3.030;2024-03-08T12:30:51;13.40;;;11.35;;
38637;SDS011;24401;53.034;-3.030;2024-03-08T12:33:24;19.48;;;11.82;;
38637;SDS011;24401;53.034;-3.030;2024-03-08T12:35:54;23.67;;;12.23;;
38637;SDS011;24401;53.034;-3.030;2024-03-08T12:38:27;14.17;;;11.73;;
38637;SDS011;24401;53.034;-3.030;2024-03-08T12:40:58;13.88;;;11.88;;
38637;SDS011;24401;53.034;-3.030;2024-03-08T12:43:28;25.77;;;13.50;;
38637;SDS011;24401;53.034;-3.030;2024-03-08T12:46:01;17.88;;;10.90;;
38637;SDS011;24401;53.034;-3.030;2024-03-08T12:48:34;16.67;;;12.20;;
38637;SDS011;24401;53.034;-3.030;2024-03-08T12:51:08;16.90;;;10.80;;
38637;SDS011;24401;53.034;-3.030;2024-03-08T12:53:39;16.75;;;12.02;;
38637;SDS011;24401;53.034;-3.030;2024-03-08T12:56:16;12.32;;;11.18;;
38637;SDS011;24401;53.034;-3.030;2024-03-08T12:58:50;19.30;;;12.07;;
38637;SDS011;24401;53.034;-3.030;2024-03-08T13:01:20;15.57;;;11.80;;
38637;SDS011;24401;53.034;-3.030;2024-03-08T13:03:50;24.67;;;13.13;;
38637;SDS011;24401;53.034;-3.030;2024-03-08T13:06:21;17.33;;;11.80;;
38637;SDS011;24401;53.034;-3.030;2024-03-08T13:08:54;16.90;;;11.82;;
38637;SDS011;24401;53.034;-3.030;2024-03-08T13:11:25;14.03;;;11.83;;
38637;SDS011;24401;53.034;-3.030;2024-03-08T13:13:55;16.80;;;13.23;;
38637;SDS011;24401;53.034;-3.030;2024-03-08T13:16:25;18.53;;;12.10;;
38637;SDS011;24401;53.034;-3.030;2024-03-08T13:18:59;13.88;;;11.80;;
38637;SDS011;24401;53.034;-3.030;2024-03-08T13:21:29;16.97;;;11.47;;
38637;SDS011;24401;53.034;-3.030;2024-03-08T13:24:00;13.10;;;10.27;;
38637;SDS011;24401;53.034;-3.030;2024-03-08T13:26:31;13.77;;;10.15;;
38637;SDS011;24401;53.034;-3.030;2024-03-08T13:29:03;12.70;;;11.10;;
38637;SDS011;24401;53.034;-3.030;2024-03-08T13:31:36;15.57;;;11.27;;
38637;SDS011;24401;53.034;-3.030;2024-03-08T13:34:06;10.60;;;9.57;;
38637;SDS011;24401;53.034;-3.030;2024-03-08T13:36:36;11.97;;;10.87;;
38637;SDS011;24401;53.034;-3.030;2024-03-08T13:39:12;17.85;;;11.23;;
38637;SDS011;24401;53.034;-3.030;2024-03-08T13:41:45;19.77;;;11.25;;
38637;SDS011;24401;53.034;-3.030;2024-03-08T13:44:15;13.50;;;10.40;;
38637;SDS011;24401;53.034;-3.030;2024-03-08T13:46:47;15.15;;;10.98;;
38637;SDS011;24401;53.034;-3.030;2024-03-08T13:49:17;18.20;;;11.83;;
38637;SDS011;24401;53.034;-3.030;2024-03-08T13:51:47;22.00;;;10.63;;
38637;SDS011;24401;53.034;-3.030;2024-03-08T13:54:18;19.83;;;10.50;;
38637;SDS011;24401;53.034;-3.030;2024-03-08T13:56:49;11.90;;;10.10;;
38637;SDS011;24401;53.034;-3.030;2024-03-08T13:59:20;11.30;;;9.60;;
38637;SDS011;24401;53.034;-3.030;2024-03-08T14:01:52;11.38;;;9.45;;
38637;SDS011;24401;53.034;-3.030;2024-03-08T14:04:22;17.77;;;10.87;;
38637;SDS011;24401;53.034;-3.030;2024-03-08T14:06:54;24.92;;;10.68;;
38637;SDS011;24401;53.034;-3.030;2024-03-08T14:09:33;12.82;;;9.90;;
38637;SDS011;24401;53.034;-3.030;2024-03-08T14:12:07;10.55;;;9.45;;
38637;SDS011;24401;53.034;-3.030;2024-03-08T14:14:37;13.83;;;10.60;;
38637;SDS011;24401;53.034;-3.030;2024-03-08T14:17:07;18.57;;;11.90;;
38637;SDS011;24401;53.034;-3.030;2024-03-08T14:19:39;19.70;;;10.90;;
38637;SDS011;24401;53.034;-3.030;2024-03-08T14:22:10;11.50;;;9.97;;
38637;SDS011;24401;53.034;-3.030;2024-03-08T14:24:44;10.13;;;9.23;;
38637;SDS011;24401;53.034;-3.030;2024-03-08T14:27:15;13.87;;;10.07;;
38637;SDS011;24401;53.034;-3.030;2024-03-08T14:29:45;13.73;;;10.13;;
38637;SDS011;24401;53.034;-3.030;2024-03-08T14:32:15;12.43;;;11.10;;
38637;SDS011;24401;53.034;-3.030;2024-03-08T14:34:49;15.48;;;10.02;;
38637;SDS011;24401;53.034;-3.030;2024-03-08T14:37:19;10.90;;;9.70;;
38637;SDS011;24401;53.034;-3.030;2024-03-08T14:39:53;16.35;;;10.57;;
38637;SDS011;24401;53.034;-3.030;2024-03-08T14:42:24;14.80;;;10.50;;
38637;SDS011;24401;53.034;-3.030;2024-03-08T14:44:55;19.17;;;11.20;;
38637;SDS011;24401;53.034;-3.030;2024-03-08T14:47:27;11.82;;;10.10;;
38637;SDS011;24401;53.034;-3.030;2024-03-08T14:49:58;13.57;;;10.15;;
38637;SDS011;24401;53.034;-3.030;2024-03-08T14:52:28;11.53;;;10.07;;
38637;SDS011;24401;53.034;-3.030;2024-03-08T14:54:58;12.13;;;9.80;;